sensor_id;sensor_type;location;lat;lon;timestamp;P1;durP1;ratioP1;P2;durP2;ratioP2
71183;SDS011;58887;51.980;4.464;2022-09-09T00:00:44;5.98;;;5.98;;
71183;SDS011;58887;51.980;4.464;2022-09-09T00:03:21;5.99;;;5.99;;
71183;SDS011;58887;51.980;4.464;2022-09-09T00:11:51;6.24;;;6.24;;
71183;SDS011;58887;51.980;4.464;2022-09-09T00:22:52;6.62;;;6.62;;
71183;SDS011;58887;51.980;4.464;2022-09-09T00:31:20;7.03;;;7.03;;
71183;SDS011;58887;51.980;4.464;2022-09-09T00:33:51;7.13;;;7.13;;
71183;SDS011;58887;51.980;4.464;2022-09-09T00:36:23;7.79;;;7.79;;
71183;SDS011;58887;51.980;4.464;2022-09-09T00:38:57;7.68;;;7.68;;
71183;SDS011;58887;51.980;4.464;2022-09-09T00:41:31;8.31;;;8.24;;
71183;SDS011;58887;51.980;4.464;2022-09-09T00:44:31;7.87;;;7.87;;
71183;SDS011;58887;51.980;4.464;2022-09-09T00:47:18;8.28;;;8.28;;
71183;SDS011;58887;51.980;4.464;2022-09-09T00:50:03;7.91;;;7.91;;
71183;SDS011;58887;51.980;4.464;2022-09-09T00:55:30;7.69;;;7.69;;
71183;SDS011;58887;51.980;4.464;2022-09-09T00:58:13;7.76;;;7.74;;
71183;SDS011;58887;51.980;4.464;2022-09-09T01:03:13;6.98;;;6.98;;
71183;SDS011;58887;51.980;4.464;2022-09-09T01:06:11;6.90;;;6.90;;
71183;SDS011;58887;51.980;4.464;2022-09-09T01:09:11;6.80;;;6.80;;
71183;SDS011;58887;51.980;4.464;2022-09-09T01:12:12;6.46;;;6.46;;
71183;SDS011;58887;51.980;4.464;2022-09-09T01:14:50;6.56;;;6.56;;
71183;SDS011;58887;51.980;4.464;2022-09-09T01:17:23;5.95;;;5.95;;
71183;SDS011;58887;51.980;4.464;2022-09-09T01:26:15;5.24;;;5.24;;
71183;SDS011;58887;51.980;4.464;2022-09-09T01:28:59;4.61;;;4.60;;
71183;SDS011;58887;51.980;4.464;2022-09-09T01:31:27;4.28;;;4.28;;
71183;SDS011;58887;51.980;4.464;2022-09-09T01:34:01;4.06;;;4.06;;
71183;SDS011;58887;51.980;4.464;2022-09-09T01:36:44;4.16;;;4.16;;
71183;SDS011;58887;51.980;4.464;2022-09-09T01:39:12;4.03;;;4.03;;
71183;SDS011;58887;51.980;4.464;2022-09-09T01:41:38;4.17;;;4.17;;
71183;SDS011;58887;51.980;4.464;2022-09-09T01:44:04;3.71;;;3.69;;
71183;SDS011;58887;51.980;4.464;2022-09-09T01:46:30;3.91;;;3.88;;
71183;SDS011;58887;51.980;4.464;2022-09-09T01:48:56;3.56;;;3.55;;
71183;SDS011;58887;51.980;4.464;2022-09-09T01:51:24;3.58;;;3.56;;
71183;SDS011;58887;51.980;4.464;2022-09-09T01:53:49;3.41;;;3.38;;
71183;SDS011;58887;51.980;4.464;2022-09-09T02:04:02;3.34;;;3.34;;
71183;SDS011;58887;51.980;4.464;2022-09-09T02:06:42;3.04;;;3.03;;
71183;SDS011;58887;51.980;4.464;2022-09-09T02:09:12;2.93;;;2.93;;
71183;SDS011;58887;51.980;4.464;2022-09-09T02:11:42;2.64;;;2.64;;
71183;SDS011;58887;51.980;4.464;2022-09-09T02:14:13;2.44;;;2.44;;
71183;SDS011;58887;51.980;4.464;2022-09-09T02:16:44;2.49;;;2.49;;
71183;SDS011;58887;51.980;4.464;2022-09-09T02:19:44;2.40;;;2.39;;
71183;SDS011;58887;51.980;4.464;2022-09-09T02:22:16;2.36;;;2.34;;
71183;SDS011;58887;51.980;4.464;2022-09-09T02:24:45;2.38;;;2.38;;
71183;SDS011;58887;51.980;4.464;2022-09-09T02:27:13;2.43;;;2.43;;
71183;SDS011;58887;51.980;4.464;2022-09-09T02:29:42;2.46;;;2.45;;
71183;SDS011;58887;51.980;4.464;2022-09-09T02:32:13;2.50;;;2.50;;
71183;SDS011;58887;51.980;4.464;2022-09-09T02:34:47;2.63;;;2.59;;
71183;SDS011;58887;51.980;4.464;2022-09-09T02:37:21;2.66;;;2.59;;
71183;SDS011;58887;51.980;4.464;2022-09-09T02:39:53;2.70;;;2.64;;
71183;SDS011;58887;51.980;4.464;2022-09-09T02:42:19;2.74;;;2.69;;
71183;SDS011;58887;51.980;4.464;2022-09-09T02:44:46;2.74;;;2.71;;
71183;SDS011;58887;51.980;4.464;2022-09-09T02:49:57;3.14;;;3.14;;
71183;SDS011;58887;51.980;4.464;2022-09-09T02:58:02;3.37;;;3.36;;
71183;SDS011;58887;51.980;4.464;2022-09-09T03:00:33;3.57;;;3.57;;
71183;SDS011;58887;51.980;4.464;2022-09-09T03:03:01;4.00;;;4.00;;
71183;SDS011;58887;51.980;4.464;2022-09-09T03:05:29;4.03;;;4.03;;
71183;SDS011;58887;51.980;4.464;2022-09-09T03:07:54;4.42;;;4.42;;
71183;SDS011;58887;51.980;4.464;2022-09-09T03:10:20;4.46;;;4.42;;
71183;SDS011;58887;51.980;4.464;2022-09-09T03:12:45;4.39;;;4.36;;
71183;SDS011;58887;51.980;4.464;2022-09-09T03:15:11;4.34;;;4.34;;
71183;SDS011;58887;51.980;4.464;2022-09-09T03:17:37;4.43;;;4.43;;
71183;SDS011;58887;51.980;4.464;2022-09-09T03:20:03;4.14;;;4.14;;
71183;SDS011;58887;51.980;4.464;2022-09-09T03:22:29;4.00;;;4.00;;
71183;SDS011;58887;51.980;4.464;2022-09-09T03:24:55;3.81;;;3.81;;
71183;SDS011;58887;51.980;4.464;2022-09-09T03:27:20;3.62;;;3.60;;
71183;SDS011;58887;51.980;4.464;2022-09-09T03:29:46;3.49;;;3.46;;
71183;SDS011;58887;51.980;4.464;2022-09-09T03:32:12;3.56;;;3.54;;
71183;SDS011;58887;51.980;4.464;2022-09-09T03:34:38;3.37;;;3.36;;
71183;SDS011;58887;51.980;4.464;2022-09-09T03:37:07;2.96;;;2.96;;
71183;SDS011;58887;51.980;4.464;2022-09-09T03:39:32;2.77;;;2.77;;
71183;SDS011;58887;51.980;4.464;2022-09-09T03:41:58;2.98;;;2.95;;
71183;SDS011;58887;51.980;4.464;2022-09-09T03:44:23;2.86;;;2.78;;
71183;SDS011;58887;51.980;4.464;2022-09-09T03:46:49;2.95;;;2.79;;
71183;SDS011;58887;51.980;4.464;2022-09-09T03:49:14;2.81;;;2.61;;
71183;SDS011;58887;51.980;4.464;2022-09-09T03:51:40;2.79;;;2.60;;
71183;SDS011;58887;51.980;4.464;2022-09-09T03:54:06;2.84;;;2.66;;
71183;SDS011;58887;51.980;4.464;2022-09-09T03:56:33;3.17;;;2.97;;
71183;SDS011;58887;51.980;4.464;2022-09-09T03:59:00;3.37;;;3.21;;
71183;SDS011;58887;51.980;4.464;2022-09-09T04:01:25;3.27;;;3.14;;
71183;SDS011;58887;51.980;4.464;2022-09-09T04:03:52;3.22;;;3.09;;
71183;SDS011;58887;51.980;4.464;2022-09-09T04:06:17;3.31;;;3.16;;
71183;SDS011;58887;51.980;4.464;2022-09-09T04:08:45;3.46;;;3.29;;
71183;SDS011;58887;51.980;4.464;2022-09-09T04:11:13;3.72;;;3.59;;
71183;SDS011;58887;51.980;4.464;2022-09-09T04:13:40;3.26;;;3.16;;
71183;SDS011;58887;51.980;4.464;2022-09-09T04:16:07;3.19;;;3.08;;
71183;SDS011;58887;51.980;4.464;2022-09-09T04:18:35;3.57;;;3.42;;
71183;SDS011;58887;51.980;4.464;2022-09-09T04:21:01;3.28;;;3.16;;
71183;SDS011;58887;51.980;4.464;2022-09-09T04:23:28;2.96;;;2.84;;
71183;SDS011;58887;51.980;4.464;2022-09-09T04:25:55;3.06;;;2.91;;
71183;SDS011;58887;51.980;4.464;2022-09-09T04:28:22;3.38;;;3.22;;
71183;SDS011;58887;51.980;4.464;2022-09-09T04:30:50;2.68;;;2.59;;
71183;SDS011;58887;51.980;4.464;2022-09-09T04:33:17;3.17;;;3.09;;
71183;SDS011;58887;51.980;4.464;2022-09-09T04:35:47;2.80;;;2.77;;
71183;SDS011;58887;51.980;4.464;2022-09-09T04:38:15;2.76;;;2.75;;
71183;SDS011;58887;51.980;4.464;2022-09-09T04:40:47;2.92;;;2.92;;
71183;SDS011;58887;51.980;4.464;2022-09-09T04:43:13;2.69;;;2.68;;
71183;SDS011;58887;51.980;4.464;2022-09-09T04:45:40;2.65;;;2.65;;
71183;SDS011;58887;51.980;4.464;2022-09-09T04:48:06;2.83;;;2.82;;
71183;SDS011;58887;51.980;4.464;2022-09-09T04:50:32;3.04;;;3.01;;
71183;SDS011;58887;51.980;4.464;2022-09-09T04:53:03;3.04;;;2.95;;
71183;SDS011;58887;51.980;4.464;2022-09-09T04:55:30;3.06;;;2.98;;
71183;SDS011;58887;51.980;4.464;2022-09-09T04:57:56;2.86;;;2.82;;
71183;SDS011;58887;51.980;4.464;2022-09-09T05:00:23;3.41;;;3.27;;
71183;SDS011;58887;51.980;4.464;2022-09-09T05:02:49;3.39;;;3.29;;
71183;SDS011;58887;51.980;4.464;2022-09-09T05:05:14;3.47;;;3.46;;
71183;SDS011;58887;51.980;4.464;2022-09-09T05:07:40;3.30;;;3.30;;
71183;SDS011;58887;51.980;4.464;2022-09-09T05:10:06;3.34;;;3.34;;
71183;SDS011;58887;51.980;4.464;2022-09-09T05:12:32;3.43;;;3.42;;
71183;SDS011;58887;51.980;4.464;2022-09-09T05:14:58;3.36;;;3.27;;
71183;SDS011;58887;51.980;4.464;2022-09-09T05:17:23;3.46;;;3.38;;
71183;SDS011;58887;51.980;4.464;2022-09-09T05:19:49;3.61;;;3.52;;
71183;SDS011;58887;51.980;4.464;2022-09-09T05:22:20;3.53;;;3.44;;
71183;SDS011;58887;51.980;4.464;2022-09-09T05:24:48;3.47;;;3.40;;
71183;SDS011;58887;51.980;4.464;2022-09-09T05:27:16;3.52;;;3.47;;
71183;SDS011;58887;51.980;4.464;2022-09-09T05:29:44;3.33;;;3.23;;
71183;SDS011;58887;51.980;4.464;2022-09-09T05:32:11;3.21;;;3.10;;
71183;SDS011;58887;51.980;4.464;2022-09-09T05:34:36;3.55;;;3.47;;
71183;SDS011;58887;51.980;4.464;2022-09-09T05:37:04;3.44;;;3.39;;
71183;SDS011;58887;51.980;4.464;2022-09-09T05:39:31;3.38;;;3.37;;
71183;SDS011;58887;51.980;4.464;2022-09-09T05:41:58;3.58;;;3.51;;
71183;SDS011;58887;51.980;4.464;2022-09-09T05:44:23;3.92;;;3.72;;
71183;SDS011;58887;51.980;4.464;2022-09-09T05:46:52;3.58;;;3.38;;
71183;SDS011;58887;51.980;4.464;2022-09-09T05:49:20;3.68;;;3.47;;
71183;SDS011;58887;51.980;4.464;2022-09-09T05:51:46;3.55;;;3.29;;
71183;SDS011;58887;51.980;4.464;2022-09-09T05:54:13;3.60;;;3.39;;
71183;SDS011;58887;51.980;4.464;2022-09-09T05:56:40;3.70;;;3.40;;
71183;SDS011;58887;51.980;4.464;2022-09-09T05:59:06;3.38;;;3.14;;
71183;SDS011;58887;51.980;4.464;2022-09-09T06:01:33;3.70;;;3.34;;
71183;SDS011;58887;51.980;4.464;2022-09-09T06:04:00;3.59;;;3.27;;
71183;SDS011;58887;51.980;4.464;2022-09-09T06:06:27;3.31;;;3.06;;
71183;SDS011;58887;51.980;4.464;2022-09-09T06:08:57;3.27;;;2.97;;
71183;SDS011;58887;51.980;4.464;2022-09-09T06:11:24;3.61;;;3.27;;
71183;SDS011;58887;51.980;4.464;2022-09-09T06:13:51;3.64;;;3.31;;
71183;SDS011;58887;51.980;4.464;2022-09-09T06:16:19;3.44;;;3.19;;
71183;SDS011;58887;51.980;4.464;2022-09-09T06:18:50;3.27;;;3.03;;
71183;SDS011;58887;51.980;4.464;2022-09-09T06:23:47;3.30;;;3.05;;
71183;SDS011;58887;51.980;4.464;2022-09-09T06:26:20;3.62;;;3.28;;
71183;SDS011;58887;51.980;4.464;2022-09-09T06:28:48;3.87;;;3.43;;
71183;SDS011;58887;51.980;4.464;2022-09-09T06:31:16;3.68;;;3.33;;
71183;SDS011;58887;51.980;4.464;2022-09-09T06:33:47;3.56;;;3.23;;
71183;SDS011;58887;51.980;4.464;2022-09-09T06:36:21;4.03;;;3.68;;
71183;SDS011;58887;51.980;4.464;2022-09-09T06:38:52;3.63;;;3.40;;
71183;SDS011;58887;51.980;4.464;2022-09-09T06:41:19;3.34;;;3.20;;
71183;SDS011;58887;51.980;4.464;2022-09-09T06:43:46;3.26;;;3.08;;
71183;SDS011;58887;51.980;4.464;2022-09-09T06:46:15;3.46;;;3.27;;
71183;SDS011;58887;51.980;4.464;2022-09-09T06:48:43;3.63;;;3.42;;
71183;SDS011;58887;51.980;4.464;2022-09-09T06:51:11;3.86;;;3.70;;
71183;SDS011;58887;51.980;4.464;2022-09-09T06:53:38;3.56;;;3.56;;
71183;SDS011;58887;51.980;4.464;2022-09-09T06:56:19;3.49;;;3.48;;
71183;SDS011;58887;51.980;4.464;2022-09-09T06:58:53;3.69;;;3.69;;
71183;SDS011;58887;51.980;4.464;2022-09-09T07:01:21;3.77;;;3.77;;
71183;SDS011;58887;51.980;4.464;2022-09-09T07:03:50;4.04;;;4.04;;
71183;SDS011;58887;51.980;4.464;2022-09-09T07:08:51;4.02;;;4.02;;
71183;SDS011;58887;51.980;4.464;2022-09-09T07:11:19;4.19;;;4.19;;
71183;SDS011;58887;51.980;4.464;2022-09-09T07:13:46;4.09;;;4.09;;
71183;SDS011;58887;51.980;4.464;2022-09-09T07:16:13;4.36;;;4.36;;
71183;SDS011;58887;51.980;4.464;2022-09-09T07:18:43;4.30;;;4.30;;
71183;SDS011;58887;51.980;4.464;2022-09-09T07:21:13;4.08;;;4.08;;
71183;SDS011;58887;51.980;4.464;2022-09-09T07:23:39;4.25;;;4.25;;
71183;SDS011;58887;51.980;4.464;2022-09-09T07:28:34;4.10;;;4.10;;
71183;SDS011;58887;51.980;4.464;2022-09-09T07:31:00;4.34;;;4.34;;
71183;SDS011;58887;51.980;4.464;2022-09-09T07:33:28;4.42;;;4.42;;
71183;SDS011;58887;51.980;4.464;2022-09-09T07:36:05;4.57;;;4.57;;
71183;SDS011;58887;51.980;4.464;2022-09-09T07:38:39;4.51;;;4.51;;
71183;SDS011;58887;51.980;4.464;2022-09-09T07:41:08;4.46;;;4.46;;
71183;SDS011;58887;51.980;4.464;2022-09-09T07:43:39;4.56;;;4.56;;
71183;SDS011;58887;51.980;4.464;2022-09-09T07:46:09;4.28;;;4.28;;
71183;SDS011;58887;51.980;4.464;2022-09-09T07:48:37;4.26;;;4.26;;
71183;SDS011;58887;51.980;4.464;2022-09-09T07:51:11;3.93;;;3.93;;
71183;SDS011;58887;51.980;4.464;2022-09-09T07:53:42;3.89;;;3.89;;
71183;SDS011;58887;51.980;4.464;2022-09-09T07:56:08;3.71;;;3.71;;
71183;SDS011;58887;51.980;4.464;2022-09-09T07:58:36;3.72;;;3.72;;
71183;SDS011;58887;51.980;4.464;2022-09-09T08:01:07;3.57;;;3.57;;
71183;SDS011;58887;51.980;4.464;2022-09-09T08:03:37;3.64;;;3.64;;
71183;SDS011;58887;51.980;4.464;2022-09-09T08:06:04;3.75;;;3.75;;
71183;SDS011;58887;51.980;4.464;2022-09-09T08:08:35;3.78;;;3.78;;
71183;SDS011;58887;51.980;4.464;2022-09-09T08:11:08;3.43;;;3.43;;
71183;SDS011;58887;51.980;4.464;2022-09-09T08:13:40;3.47;;;3.47;;
71183;SDS011;58887;51.980;4.464;2022-09-09T08:16:11;3.73;;;3.73;;
71183;SDS011;58887;51.980;4.464;2022-09-09T08:18:39;3.48;;;3.48;;
71183;SDS011;58887;51.980;4.464;2022-09-09T08:21:06;3.47;;;3.47;;
71183;SDS011;58887;51.980;4.464;2022-09-09T08:23:41;3.53;;;3.53;;
71183;SDS011;58887;51.980;4.464;2022-09-09T08:26:11;3.45;;;3.45;;
71183;SDS011;58887;51.980;4.464;2022-09-09T08:28:40;3.65;;;3.65;;
71183;SDS011;58887;51.980;4.464;2022-09-09T08:31:07;3.32;;;3.32;;
71183;SDS011;58887;51.980;4.464;2022-09-09T08:33:54;3.33;;;3.33;;
71183;SDS011;58887;51.980;4.464;2022-09-09T08:36:21;3.40;;;3.40;;
71183;SDS011;58887;51.980;4.464;2022-09-09T08:38:51;3.56;;;3.56;;
71183;SDS011;58887;51.980;4.464;2022-09-09T08:41:30;3.71;;;3.71;;
71183;SDS011;58887;51.980;4.464;2022-09-09T08:44:14;3.45;;;3.45;;
71183;SDS011;58887;51.980;4.464;2022-09-09T08:52:29;3.57;;;3.57;;
71183;SDS011;58887;51.980;4.464;2022-09-09T08:55:20;3.52;;;3.52;;
71183;SDS011;58887;51.980;4.464;2022-09-09T08:58:21;3.53;;;3.53;;
71183;SDS011;58887;51.980;4.464;2022-09-09T09:09:01;3.67;;;3.67;;
71183;SDS011;58887;51.980;4.464;2022-09-09T09:11:40;3.58;;;3.58;;
71183;SDS011;58887;51.980;4.464;2022-09-09T09:17:04;3.44;;;3.44;;
71183;SDS011;58887;51.980;4.464;2022-09-09T09:19:35;3.66;;;3.66;;
71183;SDS011;58887;51.980;4.464;2022-09-09T09:22:21;3.57;;;3.57;;
71183;SDS011;58887;51.980;4.464;2022-09-09T09:30:26;3.63;;;3.63;;
71183;SDS011;58887;51.980;4.464;2022-09-09T09:33:01;3.33;;;3.33;;
71183;SDS011;58887;51.980;4.464;2022-09-09T09:35:31;3.18;;;3.18;;
71183;SDS011;58887;51.980;4.464;2022-09-09T09:37:57;3.20;;;3.20;;
71183;SDS011;58887;51.980;4.464;2022-09-09T09:40:25;3.27;;;3.27;;
71183;SDS011;58887;51.980;4.464;2022-09-09T09:42:55;3.29;;;3.29;;
71183;SDS011;58887;51.980;4.464;2022-09-09T09:45:34;3.52;;;3.52;;
71183;SDS011;58887;51.980;4.464;2022-09-09T09:48:09;3.65;;;3.65;;
71183;SDS011;58887;51.980;4.464;2022-09-09T09:50:45;3.78;;;3.78;;
71183;SDS011;58887;51.980;4.464;2022-09-09T09:53:22;3.71;;;3.71;;
71183;SDS011;58887;51.980;4.464;2022-09-09T09:56:00;3.76;;;3.76;;
71183;SDS011;58887;51.980;4.464;2022-09-09T09:58:30;3.77;;;3.77;;
71183;SDS011;58887;51.980;4.464;2022-09-09T10:01:00;4.02;;;4.02;;
71183;SDS011;58887;51.980;4.464;2022-09-09T10:03:30;3.70;;;3.70;;
71183;SDS011;58887;51.980;4.464;2022-09-09T10:06:02;3.76;;;3.76;;
71183;SDS011;58887;51.980;4.464;2022-09-09T10:08:28;3.68;;;3.68;;
71183;SDS011;58887;51.980;4.464;2022-09-09T10:11:16;3.84;;;3.84;;
71183;SDS011;58887;51.980;4.464;2022-09-09T10:21:43;3.31;;;3.31;;
71183;SDS011;58887;51.980;4.464;2022-09-09T10:30:03;3.44;;;3.44;;
71183;SDS011;58887;51.980;4.464;2022-09-09T10:32:49;3.46;;;3.46;;
71183;SDS011;58887;51.980;4.464;2022-09-09T10:43:22;3.49;;;3.49;;
71183;SDS011;58887;51.980;4.464;2022-09-09T10:51:57;2.84;;;2.84;;
71183;SDS011;58887;51.980;4.464;2022-09-09T10:55:20;2.70;;;2.70;;
71183;SDS011;58887;51.980;4.464;2022-09-09T10:57:42;2.98;;;2.98;;
71183;SDS011;58887;51.980;4.464;2022-09-09T11:00:20;2.55;;;2.55;;
71183;SDS011;58887;51.980;4.464;2022-09-09T11:02:52;2.76;;;2.76;;
71183;SDS011;58887;51.980;4.464;2022-09-09T11:05:29;2.35;;;2.35;;
71183;SDS011;58887;51.980;4.464;2022-09-09T11:08:04;2.48;;;2.48;;
71183;SDS011;58887;51.980;4.464;2022-09-09T11:16:41;2.31;;;2.31;;
71183;SDS011;58887;51.980;4.464;2022-09-09T11:21:49;2.66;;;2.66;;
71183;SDS011;58887;51.980;4.464;2022-09-09T11:24:33;2.83;;;2.83;;
71183;SDS011;58887;51.980;4.464;2022-09-09T11:27:18;2.81;;;2.81;;
71183;SDS011;58887;51.980;4.464;2022-09-09T11:41:14;3.05;;;3.05;;
71183;SDS011;58887;51.980;4.464;2022-09-09T11:43:41;2.94;;;2.94;;
71183;SDS011;58887;51.980;4.464;2022-09-09T11:46:10;3.35;;;3.35;;
71183;SDS011;58887;51.980;4.464;2022-09-09T11:51:25;4.08;;;4.08;;
71183;SDS011;58887;51.980;4.464;2022-09-09T11:53:54;4.31;;;4.31;;
71183;SDS011;58887;51.980;4.464;2022-09-09T11:59:05;3.76;;;3.76;;
71183;SDS011;58887;51.980;4.464;2022-09-09T12:01:44;3.71;;;3.71;;
71183;SDS011;58887;51.980;4.464;2022-09-09T12:04:16;3.81;;;3.81;;
71183;SDS011;58887;51.980;4.464;2022-09-09T12:06:58;3.83;;;3.83;;
71183;SDS011;58887;51.980;4.464;2022-09-09T12:12:21;4.05;;;4.05;;
71183;SDS011;58887;51.980;4.464;2022-09-09T12:17:43;3.83;;;3.83;;
71183;SDS011;58887;51.980;4.464;2022-09-09T12:20:19;3.82;;;3.82;;
71183;SDS011;58887;51.980;4.464;2022-09-09T12:22:52;3.88;;;3.88;;
71183;SDS011;58887;51.980;4.464;2022-09-09T12:25:35;3.71;;;3.71;;
71183;SDS011;58887;51.980;4.464;2022-09-09T12:28:18;2.72;;;2.72;;
71183;SDS011;58887;51.980;4.464;2022-09-09T12:31:08;3.04;;;3.04;;
71183;SDS011;58887;51.980;4.464;2022-09-09T12:33:43;3.33;;;3.33;;
71183;SDS011;58887;51.980;4.464;2022-09-09T12:36:18;3.87;;;3.87;;
71183;SDS011;58887;51.980;4.464;2022-09-09T12:38:48;3.64;;;3.64;;
71183;SDS011;58887;51.980;4.464;2022-09-09T12:41:19;4.23;;;4.23;;
71183;SDS011;58887;51.980;4.464;2022-09-09T12:43:45;4.09;;;4.09;;
71183;SDS011;58887;51.980;4.464;2022-09-09T12:46:14;4.14;;;4.14;;
71183;SDS011;58887;51.980;4.464;2022-09-09T12:48:47;3.88;;;3.88;;
71183;SDS011;58887;51.980;4.464;2022-09-09T12:51:17;3.81;;;3.81;;
71183;SDS011;58887;51.980;4.464;2022-09-09T12:53:53;3.87;;;3.87;;
71183;SDS011;58887;51.980;4.464;2022-09-09T12:56:21;3.56;;;3.56;;
71183;SDS011;58887;51.980;4.464;2022-09-09T12:58:51;4.06;;;4.06;;
71183;SDS011;58887;51.980;4.464;2022-09-09T13:03:53;3.33;;;3.33;;
71183;SDS011;58887;51.980;4.464;2022-09-09T13:06:20;2.48;;;2.48;;
71183;SDS011;58887;51.980;4.464;2022-09-09T13:08:50;2.02;;;2.02;;
71183;SDS011;58887;51.980;4.464;2022-09-09T13:11:18;2.02;;;2.02;;
71183;SDS011;58887;51.980;4.464;2022-09-09T13:13:53;2.11;;;2.11;;
71183;SDS011;58887;51.980;4.464;2022-09-09T13:16:28;1.84;;;1.84;;
71183;SDS011;58887;51.980;4.464;2022-09-09T13:18:56;1.61;;;1.61;;
71183;SDS011;58887;51.980;4.464;2022-09-09T13:21:34;1.69;;;1.69;;
71183;SDS011;58887;51.980;4.464;2022-09-09T13:24:03;1.79;;;1.79;;
71183;SDS011;58887;51.980;4.464;2022-09-09T13:26:32;1.80;;;1.80;;
71183;SDS011;58887;51.980;4.464;2022-09-09T13:29:15;1.72;;;1.72;;
71183;SDS011;58887;51.980;4.464;2022-09-09T13:31:43;1.60;;;1.60;;
71183;SDS011;58887;51.980;4.464;2022-09-09T13:34:29;2.02;;;2.02;;
71183;SDS011;58887;51.980;4.464;2022-09-09T13:37:00;2.10;;;2.10;;
71183;SDS011;58887;51.980;4.464;2022-09-09T13:39:31;1.88;;;1.88;;
71183;SDS011;58887;51.980;4.464;2022-09-09T13:41:59;2.03;;;2.03;;
71183;SDS011;58887;51.980;4.464;2022-09-09T13:44:31;2.12;;;2.12;;
71183;SDS011;58887;51.980;4.464;2022-09-09T13:47:04;2.38;;;2.38;;
71183;SDS011;58887;51.980;4.464;2022-09-09T13:49:51;2.37;;;2.37;;
71183;SDS011;58887;51.980;4.464;2022-09-09T13:52:17;2.36;;;2.36;;
71183;SDS011;58887;51.980;4.464;2022-09-09T13:54:47;2.54;;;2.54;;
71183;SDS011;58887;51.980;4.464;2022-09-09T13:57:15;2.19;;;2.19;;
71183;SDS011;58887;51.980;4.464;2022-09-09T13:59:46;1.88;;;1.88;;
71183;SDS011;58887;51.980;4.464;2022-09-09T14:02:13;1.93;;;1.93;;
71183;SDS011;58887;51.980;4.464;2022-09-09T14:04:42;1.89;;;1.89;;
71183;SDS011;58887;51.980;4.464;2022-09-09T14:07:15;1.86;;;1.86;;
71183;SDS011;58887;51.980;4.464;2022-09-09T14:09:42;1.60;;;1.60;;
71183;SDS011;58887;51.980;4.464;2022-09-09T14:12:09;1.51;;;1.51;;
71183;SDS011;58887;51.980;4.464;2022-09-09T14:14:36;1.52;;;1.52;;
71183;SDS011;58887;51.980;4.464;2022-09-09T14:17:02;1.46;;;1.45;;
71183;SDS011;58887;51.980;4.464;2022-09-09T14:19:29;1.71;;;1.58;;
71183;SDS011;58887;51.980;4.464;2022-09-09T14:21:56;1.93;;;1.73;;
71183;SDS011;58887;51.980;4.464;2022-09-09T14:24:22;2.17;;;1.95;;
71183;SDS011;58887;51.980;4.464;2022-09-09T14:26:47;1.96;;;1.75;;
71183;SDS011;58887;51.980;4.464;2022-09-09T14:29:13;1.91;;;1.73;;
71183;SDS011;58887;51.980;4.464;2022-09-09T14:31:38;1.74;;;1.54;;
71183;SDS011;58887;51.980;4.464;2022-09-09T14:34:03;2.09;;;1.84;;
71183;SDS011;58887;51.980;4.464;2022-09-09T14:36:29;2.13;;;1.86;;
71183;SDS011;58887;51.980;4.464;2022-09-09T14:38:55;2.03;;;1.77;;
71183;SDS011;58887;51.980;4.464;2022-09-09T14:41:20;1.89;;;1.64;;
71183;SDS011;58887;51.980;4.464;2022-09-09T14:43:47;2.00;;;1.68;;
71183;SDS011;58887;51.980;4.464;2022-09-09T14:46:14;2.25;;;1.89;;
71183;SDS011;58887;51.980;4.464;2022-09-09T14:48:41;2.28;;;1.90;;
71183;SDS011;58887;51.980;4.464;2022-09-09T14:51:10;2.24;;;1.86;;
71183;SDS011;58887;51.980;4.464;2022-09-09T14:53:39;2.34;;;1.97;;
71183;SDS011;58887;51.980;4.464;2022-09-09T14:56:06;2.16;;;1.81;;
71183;SDS011;58887;51.980;4.464;2022-09-09T14:58:32;2.09;;;1.73;;
71183;SDS011;58887;51.980;4.464;2022-09-09T15:01:08;2.04;;;1.67;;
71183;SDS011;58887;51.980;4.464;2022-09-09T15:03:36;2.09;;;1.69;;
71183;SDS011;58887;51.980;4.464;2022-09-09T15:06:06;2.19;;;1.75;;
71183;SDS011;58887;51.980;4.464;2022-09-09T15:08:34;2.11;;;1.65;;
71183;SDS011;58887;51.980;4.464;2022-09-09T15:11:02;2.08;;;1.62;;
71183;SDS011;58887;51.980;4.464;2022-09-09T15:13:29;1.95;;;1.55;;
71183;SDS011;58887;51.980;4.464;2022-09-09T15:15:55;2.05;;;1.65;;
71183;SDS011;58887;51.980;4.464;2022-09-09T15:18:22;1.96;;;1.59;;
71183;SDS011;58887;51.980;4.464;2022-09-09T15:20:48;2.06;;;1.69;;
71183;SDS011;58887;51.980;4.464;2022-09-09T15:23:14;1.98;;;1.64;;
71183;SDS011;58887;51.980;4.464;2022-09-09T15:25:52;2.10;;;1.79;;
71183;SDS011;58887;51.980;4.464;2022-09-09T15:28:20;2.12;;;1.82;;
71183;SDS011;58887;51.980;4.464;2022-09-09T15:30:49;2.32;;;1.96;;
71183;SDS011;58887;51.980;4.464;2022-09-09T15:33:16;2.23;;;1.96;;
71183;SDS011;58887;51.980;4.464;2022-09-09T15:35:42;2.74;;;2.52;;
71183;SDS011;58887;51.980;4.464;2022-09-09T15:38:08;2.83;;;2.63;;
71183;SDS011;58887;51.980;4.464;2022-09-09T15:40:33;2.86;;;2.79;;
71183;SDS011;58887;51.980;4.464;2022-09-09T15:42:58;3.24;;;3.24;;
71183;SDS011;58887;51.980;4.464;2022-09-09T15:45:24;3.65;;;3.65;;
71183;SDS011;58887;51.980;4.464;2022-09-09T15:47:49;3.48;;;3.48;;
71183;SDS011;58887;51.980;4.464;2022-09-09T15:50:15;4.33;;;4.33;;
71183;SDS011;58887;51.980;4.464;2022-09-09T15:52:40;4.09;;;4.09;;
71183;SDS011;58887;51.980;4.464;2022-09-09T15:55:06;4.38;;;4.38;;
71183;SDS011;58887;51.980;4.464;2022-09-09T15:57:33;4.90;;;4.90;;
71183;SDS011;58887;51.980;4.464;2022-09-09T16:00:00;4.61;;;4.61;;
71183;SDS011;58887;51.980;4.464;2022-09-09T16:02:26;5.39;;;5.39;;
71183;SDS011;58887;51.980;4.464;2022-09-09T16:04:51;5.84;;;5.84;;
71183;SDS011;58887;51.980;4.464;2022-09-09T16:07:17;6.04;;;6.04;;
71183;SDS011;58887;51.980;4.464;2022-09-09T16:09:42;5.65;;;5.65;;
71183;SDS011;58887;51.980;4.464;2022-09-09T16:12:08;5.41;;;5.41;;
71183;SDS011;58887;51.980;4.464;2022-09-09T16:14:37;5.26;;;5.26;;
71183;SDS011;58887;51.980;4.464;2022-09-09T16:17:04;5.02;;;5.02;;
71183;SDS011;58887;51.980;4.464;2022-09-09T16:19:30;5.57;;;5.57;;
71183;SDS011;58887;51.980;4.464;2022-09-09T16:21:56;5.72;;;5.72;;
71183;SDS011;58887;51.980;4.464;2022-09-09T16:24:22;5.65;;;5.65;;
71183;SDS011;58887;51.980;4.464;2022-09-09T16:26:50;5.70;;;5.70;;
71183;SDS011;58887;51.980;4.464;2022-09-09T16:29:17;5.58;;;5.58;;
71183;SDS011;58887;51.980;4.464;2022-09-09T16:31:44;5.81;;;5.81;;
71183;SDS011;58887;51.980;4.464;2022-09-09T16:34:11;5.54;;;5.54;;
71183;SDS011;58887;51.980;4.464;2022-09-09T16:36:39;5.87;;;5.87;;
71183;SDS011;58887;51.980;4.464;2022-09-09T16:39:07;5.00;;;5.00;;
71183;SDS011;58887;51.980;4.464;2022-09-09T16:41:34;4.24;;;4.24;;
71183;SDS011;58887;51.980;4.464;2022-09-09T16:44:02;3.90;;;3.90;;
71183;SDS011;58887;51.980;4.464;2022-09-09T16:46:30;3.36;;;3.36;;
71183;SDS011;58887;51.980;4.464;2022-09-09T16:48:59;3.54;;;3.54;;
71183;SDS011;58887;51.980;4.464;2022-09-09T16:51:29;3.32;;;3.32;;
71183;SDS011;58887;51.980;4.464;2022-09-09T16:53:58;3.59;;;3.59;;
71183;SDS011;58887;51.980;4.464;2022-09-09T16:56:26;3.61;;;3.61;;
71183;SDS011;58887;51.980;4.464;2022-09-09T16:58:54;3.70;;;3.70;;
71183;SDS011;58887;51.980;4.464;2022-09-09T17:01:23;4.24;;;4.24;;
71183;SDS011;58887;51.980;4.464;2022-09-09T17:03:55;4.31;;;4.31;;
71183;SDS011;58887;51.980;4.464;2022-09-09T17:06:23;4.85;;;4.85;;
71183;SDS011;58887;51.980;4.464;2022-09-09T17:08:53;4.47;;;4.47;;
71183;SDS011;58887;51.980;4.464;2022-09-09T17:11:19;4.77;;;4.76;;
71183;SDS011;58887;51.980;4.464;2022-09-09T17:13:45;4.89;;;4.89;;
71183;SDS011;58887;51.980;4.464;2022-09-09T17:16:14;4.95;;;4.95;;
71183;SDS011;58887;51.980;4.464;2022-09-09T17:18:42;4.68;;;4.68;;
71183;SDS011;58887;51.980;4.464;2022-09-09T17:21:09;4.99;;;4.99;;
71183;SDS011;58887;51.980;4.464;2022-09-09T17:23:39;5.14;;;5.14;;
71183;SDS011;58887;51.980;4.464;2022-09-09T17:26:06;5.23;;;5.23;;